Time;durP1;ratioP1;P1;durP2;ratioP2;P2;SDS_P1;SDS_P2;PMS_P1;PMS_P2;Temp;Humidity;BMP_temperature;BMP_pressure;BME280_temperature;BME280_humidity;BME280_pressure;Samples;Min_cycle;Max_cycle;Signal;HPM_P1;HPM_P2
2023/05/16 00:01:01;;;;;;;13.93;2.20;;;11.90;99.90;;;;;;4873618;29;20196;-89
2023/05/16 00:03:47;;;;;;;9.85;2.05;;;11.80;99.90;;;;;;4850221;29;20037;-90
2023/05/16 00:08:45;;;;;;;20.38;2.63;;;11.90;99.90;;;;;;4857878;23;20061;-90
2023/05/16 00:11:32;;;;;;;12.82;2.35;;;11.90;99.90;;;;;;4843049;29;20054;-90
2023/05/16 00:14:00;;;;;;;9.05;2.10;;;11.90;99.90;;;;;;4857723;29;20045;-89
2023/05/16 00:16:29;;;;;;;12.43;2.35;;;11.90;99.90;;;;;;4943247;24;20088;-90
2023/05/16 00:19:47;;;;;;;;;;;;;;;;;;;;;
2023/05/16 00:22:59;;;;;;;9.00;1.83;;;11.80;99.90;;;;;;4824117;29;20060;-90
2023/05/16 00:25:51;;;;;;;11.48;2.42;;;11.80;99.90;;;;;;4837680;24;20072;-90
2023/05/16 00:34:55;;;;;;;9.85;1.75;;;11.80;99.90;;;;;;4810933;29;20054;-90
2023/05/16 00:37:31;;;;;;;;;;;;;;;;;;;;;
2023/05/16 00:41:32;;;;;;;11.50;2.30;;;11.80;99.90;;;;;;4826216;29;20137;-90
2023/05/16 00:44:51;;;;;;;8.88;1.80;;;11.70;99.90;;;;;;4820247;29;20053;-89
2023/05/16 00:47:29;;;;;;;;;;;;;;;;;;;;;
2023/05/16 00:50:51;;;;;;;11.77;2.10;;;11.70;99.90;;;;;;4816040;29;20051;-90
2023/05/16 00:53:46;;;;;;;;;;;;;;;;;;;;;
2023/05/16 00:56:30;;;;;;;11.55;2.13;;;11.60;99.90;;;;;;4814266;24;20047;-90
2023/05/16 00:59:18;;;;;;;12.23;2.30;;;11.60;99.90;;;;;;4823270;29;20097;-89
2023/05/16 01:02:05;;;;;;;12.13;1.95;;;11.60;99.90;;;;;;4836954;29;20079;-90
2023/05/16 01:04:56;;;;;;;9.68;1.83;;;11.50;99.90;;;;;;4847340;24;20041;-90
2023/05/16 01:07:41;;;;;;;11.80;2.22;;;11.60;99.90;;;;;;4823138;29;20058;-90
2023/05/16 01:11:04;;;;;;;8.65;1.95;;;11.60;99.90;;;;;;4844113;29;20058;-89
2023/05/16 01:14:12;;;;;;;11.13;2.20;;;11.50;99.90;;;;;;4878312;24;20073;-90
2023/05/16 01:17:29;;;;;;;8.95;1.77;;;11.50;99.90;;;;;;4824039;29;20058;-89
2023/05/16 01:20:27;;;;;;;10.88;1.92;;;11.40;99.90;;;;;;4847640;29;20081;-89
2023/05/16 01:23:42;;;;;;;9.90;2.10;;;11.40;99.90;;;;;;4824094;29;20172;-90
2023/05/16 01:26:33;;;;;;;13.13;2.13;;;11.40;99.90;;;;;;4824472;29;20172;-89
2023/05/16 01:29:28;;;;;;;;;;;;;;;;;;;;;
2023/05/16 01:32:07;;;;;;;11.32;2.10;;;11.40;99.90;;;;;;4830555;24;20054;-89
2023/05/16 01:34:42;;;;;;;7.40;1.60;;;11.40;99.90;;;;;;4822902;29;20061;-89
2023/05/16 01:37:36;;;;;;;10.32;1.90;;;11.30;99.90;;;;;;4826781;29;20050;-89
2023/05/16 01:40:26;;;;;;;10.40;1.70;;;11.30;99.90;;;;;;4833442;29;20504;-90
2023/05/16 01:43:32;;;;;;;10.02;1.95;;;11.20;99.90;;;;;;4823643;29;20407;-90
2023/05/16 01:46:51;;;;;;;11.40;1.95;;;11.20;99.90;;;;;;4829185;29;20133;-89
2023/05/16 01:53:11;;;;;;;8.73;1.85;;;11.10;99.90;;;;;;4842135;29;20061;-90
2023/05/16 01:56:02;;;;;;;11.82;2.13;;;11.10;99.90;;;;;;4837414;29;20037;-89
2023/05/16 01:58:48;;;;;;;10.15;1.95;;;11.10;99.90;;;;;;4842339;29;20117;-90
2023/05/16 02:01:35;;;;;;;10.57;2.03;;;11.10;99.90;;;;;;4850449;23;20518;-89
2023/05/16 02:04:08;;;;;;;8.48;1.80;;;11.10;99.90;;;;;;4854464;29;20060;-90
2023/05/16 02:06:34;;;;;;;12.43;2.00;;;11.00;99.90;;;;;;4844930;29;20133;-90
2023/05/16 02:09:02;;;;;;;9.32;1.65;;;11.00;99.90;;;;;;4841470;29;20871;-90
2023/05/16 02:11:28;;;;;;;10.52;2.15;;;11.00;99.90;;;;;;4841960;29;20451;-90
2023/05/16 02:14:12;;;;;;;7.47;1.73;;;11.00;99.90;;;;;;4875707;29;20104;-91
2023/05/16 02:16:43;;;;;;;8.50;1.50;;;11.00;99.90;;;;;;4860926;29;20045;-90
2023/05/16 02:19:24;;;;;;;10.57;1.65;;;10.90;99.90;;;;;;4846036;29;20046;-90
2023/05/16 02:21:57;;;;;;;9.82;1.80;;;10.90;99.90;;;;;;4858954;29;20140;-90
2023/05/16 02:24:29;;;;;;;7.88;1.75;;;10.90;99.90;;;;;;4859903;29;20045;-90
2023/05/16 02:27:36;;;;;;;13.00;1.90;;;10.90;99.90;;;;;;4843213;29;20058;-90
2023/05/16 02:30:25;;;;;;;8.80;1.50;;;10.90;99.90;;;;;;4836916;29;20057;-89
2023/05/16 02:32:56;;;;;;;9.38;1.80;;;10.80;99.90;;;;;;4841526;29;20049;-90
2023/05/16 02:35:23;;;;;;;9.90;1.70;;;10.80;99.90;;;;;;4841857;29;20054;-90
2023/05/16 02:38:10;;;;;;;6.03;1.27;;;10.80;99.90;;;;;;4842129;29;20038;-89
2023/05/16 02:40:39;;;;;;;10.27;1.70;;;10.80;99.90;;;;;;4847229;29;20041;-90
2023/05/16 02:43:20;;;;;;;8.50;1.60;;;10.70;99.90;;;;;;4860328;29;20045;-89
2023/05/16 02:45:46;;;;;;;9.00;1.63;;;10.70;99.90;;;;;;4841814;29;20061;-90
2023/05/16 02:48:27;;;;;;;6.90;1.73;;;10.70;99.90;;;;;;4841363;29;20171;-90
2023/05/16 02:50:52;;;;;;;9.55;2.28;;;10.70;99.90;;;;;;4840286;29;20085;-90
2023/05/16 02:53:50;;;;;;;;;;;;;;;;;;;;;
2023/05/16 02:56:50;;;;;;;12.15;1.40;;;10.60;99.90;;;;;;4807486;29;20094;-90
2023/05/16 02:59:55;;;;;;;8.40;1.75;;;10.60;99.90;;;;;;4852721;29;20089;-90
2023/05/16 03:02:43;;;;;;;8.55;1.70;;;10.60;99.90;;;;;;4858999;29;20061;-90
2023/05/16 03:05:30;;;;;;;7.32;1.58;;;10.50;99.90;;;;;;4894462;24;20053;-89
2023/05/16 03:08:07;;;;;;;8.55;1.50;;;10.50;99.90;;;;;;4889823;24;20062;-89
2023/05/16 03:10:40;;;;;;;10.65;1.50;;;10.50;99.90;;;;;;4847098;24;20054;-88
2023/05/16 03:13:30;;;;;;;7.75;1.60;;;10.50;99.90;;;;;;4826658;29;20046;-89
2023/05/16 03:25:47;;;;;;;9.05;1.77;;;10.30;99.90;;;;;;4823028;27;20058;-89
2023/05/16 03:31:06;;;;;;;8.68;1.80;;;10.30;99.90;;;;;;4840507;23;20093;-90
2023/05/16 03:33:51;;;;;;;8.40;1.67;;;10.20;99.90;;;;;;4805198;29;20054;-88
2023/05/16 03:36:23;;;;;;;7.45;1.42;;;10.20;99.90;;;;;;4808305;29;20069;-90
2023/05/16 03:38:52;;;;;;;9.63;1.55;;;10.20;99.90;;;;;;4808823;29;20055;-90
2023/05/16 03:41:56;;;;;;;7.90;1.50;;;10.20;99.90;;;;;;4827714;24;20139;-90
2023/05/16 03:45:21;;;;;;;7.95;1.52;;;10.20;99.90;;;;;;4828905;29;20058;-89
2023/05/16 03:47:50;;;;;;;8.98;1.70;;;10.10;99.90;;;;;;4848697;29;20054;-89
2023/05/16 03:53:09;;;;;;;8.63;1.95;;;10.00;99.90;;;;;;4861622;23;20057;-90
2023/05/16 03:55:51;;;;;;;6.10;1.30;;;10.00;99.90;;;;;;4844707;29;20141;-90
2023/05/16 03:58:27;;;;;;;;;;;;;;;;;;;;;
2023/05/16 04:01:26;;;;;;;9.02;1.50;;;10.00;99.90;;;;;;4855222;29;20053;-88
2023/05/16 04:04:10;;;;;;;10.55;1.80;;;9.90;99.90;;;;;;4888742;24;20528;-88
2023/05/16 04:07:01;;;;;;;8.20;1.63;;;9.90;99.90;;;;;;4848873;29;20504;-89
2023/05/16 04:09:27;;;;;;;9.85;1.70;;;9.90;99.90;;;;;;4829471;29;20078;-89
2023/05/16 04:11:56;;;;;;;13.25;2.20;;;9.90;99.90;;;;;;4825346;29;20074;-89
2023/05/16 04:14:25;;;;;;;7.05;1.45;;;9.80;99.90;;;;;;4825103;29;20400;-91
2023/05/16 04:16:54;;;;;;;7.18;1.70;;;9.80;99.90;;;;;;4825332;29;20078;-90
2023/05/16 04:19:25;;;;;;;9.15;1.85;;;9.80;99.90;;;;;;4825479;29;20136;-89
2023/05/16 04:22:00;;;;;;;6.78;1.70;;;9.80;99.90;;;;;;4840204;29;20267;-90
2023/05/16 04:24:27;;;;;;;8.55;1.80;;;9.70;99.90;;;;;;4832185;29;20484;-86
2023/05/16 04:27:00;;;;;;;8.95;1.60;;;9.70;99.90;;;;;;4844154;29;20510;-88
2023/05/16 04:29:25;;;;;;;9.07;1.88;;;9.80;99.90;;;;;;4841206;29;20050;-88
2023/05/16 04:32:06;;;;;;;7.22;1.50;;;9.80;99.90;;;;;;4833088;29;20106;-90
2023/05/16 04:34:36;;;;;;;8.95;1.60;;;9.70;99.90;;;;;;4825500;29;20099;-87
2023/05/16 04:37:08;;;;;;;7.47;1.45;;;9.70;99.90;;;;;;4832883;29;20050;-87
2023/05/16 04:39:42;;;;;;;8.00;1.50;;;9.70;99.90;;;;;;4836956;29;20499;-88
2023/05/16 04:42:08;;;;;;;10.20;1.98;;;9.70;99.90;;;;;;4823738;29;20054;-89
2023/05/16 04:44:34;;;;;;;9.68;1.52;;;9.70;99.90;;;;;;4827247;29;20098;-88
2023/05/16 04:47:01;;;;;;;10.48;1.60;;;9.70;99.90;;;;;;4835572;29;20054;-90
2023/05/16 04:49:47;;;;;;;6.72;1.60;;;9.70;99.90;;;;;;4825899;29;20046;-92
2023/05/16 04:52:19;;;;;;;8.50;1.60;;;9.70;99.90;;;;;;4825118;29;20046;-90
2023/05/16 04:57:26;;;;;;;7.35;1.50;;;9.60;99.90;;;;;;4843328;29;20510;-91
2023/05/16 04:59:52;;;;;;;7.05;1.50;;;9.60;99.90;;;;;;4845243;29;20060;-93
2023/05/16 05:02:17;;;;;;;12.18;1.58;;;9.70;99.90;;;;;;4845999;29;20391;-92
2023/05/16 05:04:45;;;;;;;10.40;1.73;;;9.60;99.90;;;;;;4844527;29;20061;-91
2023/05/16 05:07:20;;;;;;;12.73;1.90;;;9.60;99.90;;;;;;4844087;29;20046;-91
2023/05/16 05:09:54;;;;;;;7.75;1.50;;;9.60;99.90;;;;;;4844589;29;20136;-92
2023/05/16 05:12:28;;;;;;;13.55;2.10;;;9.50;99.90;;;;;;4843549;29;20042;-93
2023/05/16 05:14:57;;;;;;;8.43;1.58;;;9.60;99.90;;;;;;4845298;29;20487;-91
2023/05/16 05:17:28;;;;;;;10.40;1.73;;;9.60;99.90;;;;;;4843942;29;20125;-91
2023/05/16 05:20:15;;;;;;;10.80;1.92;;;9.60;99.90;;;;;;4843904;29;20502;-92
2023/05/16 05:22:50;;;;;;;6.90;1.40;;;9.60;99.90;;;;;;4844982;29;20090;-91
2023/05/16 05:25:28;;;;;;;8.30;1.60;;;9.50;99.90;;;;;;4844944;29;20053;-92
2023/05/16 05:27:54;;;;;;;7.65;1.50;;;9.50;99.90;;;;;;4844810;29;20104;-92
2023/05/16 05:30:28;;;;;;;5.68;1.42;;;9.60;99.90;;;;;;4845961;29;20058;-93
2023/05/16 05:33:00;;;;;;;8.15;1.50;;;9.60;99.90;;;;;;4850066;24;20053;-93
2023/05/16 05:36:08;;;;;;;9.88;1.73;;;9.60;99.90;;;;;;4886160;24;20106;-93
2023/05/16 05:38:49;;;;;;;9.05;1.58;;;9.60;99.90;;;;;;4845027;29;20380;-92
2023/05/16 05:41:21;;;;;;;12.43;2.10;;;9.70;99.90;;;;;;4843657;29;20045;-92
2023/05/16 05:43:58;;;;;;;13.05;1.80;;;9.70;99.90;;;;;;4843524;29;20124;-92
2023/05/16 05:46:43;;;;;;;8.63;1.70;;;9.70;99.90;;;;;;4843142;29;20045;-92
2023/05/16 05:49:18;;;;;;;6.82;1.42;;;9.70;99.90;;;;;;4843828;29;20048;-90
2023/05/16 05:51:57;;;;;;;12.52;1.90;;;9.70;99.90;;;;;;4843687;29;20045;-90
2023/05/16 05:54:32;;;;;;;9.52;1.80;;;9.70;99.90;;;;;;4843643;29;20368;-92
2023/05/16 05:57:04;;;;;;;10.80;2.13;;;9.70;99.90;;;;;;4845095;29;20050;-93
2023/05/16 05:59:30;;;;;;;8.60;1.40;;;9.70;99.90;;;;;;4843361;29;20655;-91
2023/05/16 06:02:06;;;;;;;9.90;1.95;;;9.70;99.90;;;;;;4843015;29;20062;-93
2023/05/16 06:04:38;;;;;;;7.03;1.27;;;9.70;99.90;;;;;;4842697;29;20526;-91
2023/05/16 06:07:14;;;;;;;8.20;1.77;;;9.70;99.90;;;;;;4845790;29;20049;-91
2023/05/16 06:09:49;;;;;;;10.02;1.75;;;9.70;99.90;;;;;;4844464;29;20113;-92
2023/05/16 06:12:27;;;;;;;13.45;2.30;;;9.80;99.90;;;;;;4845186;29;20419;-92
2023/05/16 06:15:02;;;;;;;6.95;1.40;;;9.80;99.90;;;;;;4844722;29;20125;-91
2023/05/16 06:17:34;;;;;;;10.32;1.75;;;9.80;99.90;;;;;;4831515;29;20130;-92
2023/05/16 06:20:03;;;;;;;8.45;1.63;;;9.90;99.90;;;;;;4828527;29;20046;-92
2023/05/16 06:22:38;;;;;;;14.02;2.03;;;9.90;99.90;;;;;;4844834;29;20074;-93
2023/05/16 06:25:07;;;;;;;10.55;1.73;;;9.90;99.90;;;;;;4845240;29;20050;-92
2023/05/16 06:36:43;;;;;;;9.70;1.30;;;10.20;99.90;;;;;;4873938;24;20119;-89
2023/05/16 06:39:36;;;;;;;8.02;1.52;;;10.20;99.90;;;;;;4850218;29;20085;-90
2023/05/16 06:42:05;;;;;;;8.57;1.25;;;10.40;99.90;;;;;;4850851;29;20042;-91
2023/05/16 06:44:50;;;;;;;8.10;1.70;;;10.40;99.90;;;;;;4877003;24;20061;-89
2023/05/16 06:47:24;;;;;;;6.82;1.40;;;10.50;99.90;;;;;;4848317;29;20042;-90
2023/05/16 07:00:18;;;;;;;7.85;1.48;;;10.60;99.90;;;;;;4831830;29;20046;-94
2023/05/16 07:02:44;;;;;;;5.05;1.20;;;10.60;99.90;;;;;;4823739;24;20038;-92
2023/05/16 07:05:42;;;;;;;5.50;1.40;;;10.70;99.90;;;;;;4832177;29;20081;-92
2023/05/16 07:08:09;;;;;;;8.27;1.40;;;10.70;99.90;;;;;;4831669;29;20054;-93
2023/05/16 07:10:35;;;;;;;10.13;1.40;;;10.80;99.90;;;;;;4830966;29;20046;-92
2023/05/16 07:13:05;;;;;;;12.73;1.80;;;10.90;99.90;;;;;;4831071;29;20127;-91
2023/05/16 07:15:33;;;;;;;6.75;1.33;;;11.00;99.90;;;;;;4836689;24;20648;-90
2023/05/16 07:18:06;;;;;;;8.55;1.30;;;11.00;99.90;;;;;;4829804;29;20047;-92
2023/05/16 07:20:41;;;;;;;6.43;1.13;;;11.10;99.90;;;;;;4828945;29;20050;-91
2023/05/16 07:23:16;;;;;;;9.82;1.55;;;11.10;99.90;;;;;;4829139;29;20142;-92
2023/05/16 07:25:48;;;;;;;8.05;1.35;;;11.30;99.90;;;;;;4829134;29;20452;-92
2023/05/16 07:28:22;;;;;;;5.45;1.20;;;11.30;99.90;;;;;;4829403;29;20128;-89
2023/05/16 07:30:48;;;;;;;10.20;1.55;;;11.40;99.90;;;;;;4829451;29;20503;-90
2023/05/16 07:33:15;;;;;;;10.48;1.48;;;11.40;99.70;;;;;;4830173;29;20126;-90
2023/05/16 07:35:43;;;;;;;7.70;1.35;;;11.50;98.80;;;;;;4829366;29;20048;-89
2023/05/16 07:38:09;;;;;;;10.85;1.63;;;11.50;99.50;;;;;;4830477;29;20717;-90
2023/05/16 07:40:44;;;;;;;8.80;1.60;;;11.60;98.90;;;;;;4829652;29;20095;-91
2023/05/16 07:43:18;;;;;;;10.85;1.45;;;11.70;98.40;;;;;;4826073;29;20476;-91
2023/05/16 07:45:59;;;;;;;9.25;1.38;;;11.80;98.20;;;;;;4825198;29;20054;-90
2023/05/16 07:48:31;;;;;;;10.30;1.35;;;11.80;97.90;;;;;;4826278;29;20046;-89
2023/05/16 07:51:03;;;;;;;8.30;1.55;;;11.80;98.50;;;;;;4825872;29;20167;-91
2023/05/16 07:53:45;;;;;;;7.55;1.25;;;11.90;98.50;;;;;;4825624;29;20470;-93
2023/05/16 07:56:19;;;;;;;11.52;1.83;;;11.90;97.80;;;;;;4827037;29;20046;-90
2023/05/16 07:59:00;;;;;;;11.30;1.83;;;12.00;97.60;;;;;;4826894;29;20410;-92
2023/05/16 08:01:41;;;;;;;10.27;1.30;;;12.00;97.90;;;;;;4810961;29;20046;-91
2023/05/16 08:04:21;;;;;;;7.10;1.40;;;11.90;97.40;;;;;;4820077;29;20098;-91
2023/05/16 08:06:59;;;;;;;7.07;1.30;;;12.00;97.70;;;;;;4824647;29;20061;-88
2023/05/16 08:09:37;;;;;;;8.10;1.20;;;11.90;97.70;;;;;;4810665;29;20053;-90
2023/05/16 08:12:18;;;;;;;10.93;1.48;;;12.00;98.20;;;;;;4823914;29;20129;-90
2023/05/16 08:14:43;;;;;;;11.48;1.65;;;12.10;97.80;;;;;;4825616;29;20136;-90
2023/05/16 08:17:09;;;;;;;9.20;1.33;;;12.10;97.50;;;;;;4826162;29;20510;-89
2023/05/16 08:19:38;;;;;;;11.00;1.40;;;12.20;97.90;;;;;;4825748;29;20050;-90
2023/05/16 08:22:10;;;;;;;11.90;1.60;;;12.40;97.80;;;;;;4824270;29;20498;-90
2023/05/16 08:24:48;;;;;;;9.85;1.85;;;12.40;97.30;;;;;;4824696;29;20051;-89
2023/05/16 08:27:27;;;;;;;7.43;1.63;;;12.50;97.10;;;;;;4826549;29;20102;-89
2023/05/16 08:29:53;;;;;;;10.65;1.65;;;12.60;97.70;;;;;;4825244;29;20047;-89
2023/05/16 08:32:18;;;;;;;9.65;1.40;;;12.60;97.90;;;;;;4825294;29;20182;-90
2023/05/16 08:34:44;;;;;;;8.10;1.70;;;12.70;96.90;;;;;;4824151;29;20129;-89
2023/05/16 08:37:10;;;;;;;6.88;1.40;;;12.70;96.40;;;;;;4809436;29;20054;-88
2023/05/16 08:39:38;;;;;;;10.02;1.40;;;12.80;96.70;;;;;;4809203;29;20046;-87
2023/05/16 08:42:07;;;;;;;6.60;1.40;;;12.80;96.10;;;;;;4825343;29;20058;-89
2023/05/16 08:44:33;;;;;;;8.15;1.30;;;12.80;96.20;;;;;;4825227;29;20456;-88
2023/05/16 08:47:15;;;;;;;6.53;1.30;;;12.90;95.60;;;;;;4823679;29;20050;-87
2023/05/16 08:49:41;;;;;;;7.00;1.50;;;13.00;95.10;;;;;;4824054;29;20081;-88
2023/05/16 08:52:10;;;;;;;5.60;1.15;;;13.10;95.30;;;;;;4824653;29;20046;-89
2023/05/16 08:54:36;;;;;;;10.68;1.50;;;13.10;95.20;;;;;;4825776;29;20395;-88
2023/05/16 08:57:10;;;;;;;8.85;1.67;;;13.10;93.90;;;;;;4825209;29;20038;-88
2023/05/16 08:59:36;;;;;;;8.32;1.60;;;13.20;93.80;;;;;;4824134;29;20055;-89
2023/05/16 09:02:03;;;;;;;6.82;1.20;;;13.30;93.80;;;;;;4824036;29;20095;-87
2023/05/16 09:04:30;;;;;;;10.82;1.77;;;13.40;94.80;;;;;;4824665;29;20053;-88
2023/05/16 09:07:16;;;;;;;11.00;1.67;;;13.50;95.10;;;;;;4808103;29;20484;-91
2023/05/16 09:09:54;;;;;;;7.95;1.25;;;13.50;94.50;;;;;;4805912;29;20046;-88
2023/05/16 09:12:25;;;;;;;10.48;1.40;;;13.50;94.40;;;;;;4806543;29;20137;-91
2023/05/16 09:14:58;;;;;;;8.38;1.50;;;13.50;94.30;;;;;;4806221;29;20667;-90
2023/05/16 09:17:23;;;;;;;10.23;1.60;;;13.60;94.40;;;;;;4805311;29;20051;-91
2023/05/16 09:20:16;;;;;;;12.10;1.65;;;13.50;94.50;;;;;;4811157;29;20121;-88
2023/05/16 09:22:52;;;;;;;10.50;1.60;;;13.50;93.60;;;;;;4825423;29;20108;-89
2023/05/16 09:25:19;;;;;;;10.32;2.08;;;13.50;94.30;;;;;;4823394;29;20046;-86
2023/05/16 09:27:52;;;;;;;10.50;1.60;;;13.50;93.70;;;;;;4823827;29;20054;-87
2023/05/16 09:30:30;;;;;;;7.28;1.20;;;13.50;92.40;;;;;;4824465;29;20395;-88
2023/05/16 09:32:55;;;;;;;8.50;1.30;;;13.50;92.80;;;;;;4823630;29;20063;-88
2023/05/16 09:35:22;;;;;;;10.15;1.40;;;13.50;91.90;;;;;;4824716;29;20436;-88
2023/05/16 09:37:51;;;;;;;7.10;1.10;;;13.60;91.00;;;;;;4822069;29;20507;-87
2023/05/16 09:40:22;;;;;;;7.88;1.60;;;13.70;91.80;;;;;;4823465;29;20103;-88
2023/05/16 09:43:06;;;;;;;9.38;1.40;;;13.70;90.60;;;;;;4825168;29;20381;-87
2023/05/16 09:45:36;;;;;;;9.23;1.60;;;13.70;91.70;;;;;;4822969;29;20058;-88
2023/05/16 09:48:09;;;;;;;12.00;1.70;;;13.70;91.90;;;;;;4824150;29;20103;-87
2023/05/16 09:50:36;;;;;;;9.65;1.90;;;13.70;92.30;;;;;;4822765;29;20057;-88
2023/05/16 09:53:02;;;;;;;13.18;1.73;;;13.80;92.80;;;;;;4821537;29;20101;-87
2023/05/16 09:55:31;;;;;;;9.25;1.60;;;13.80;93.30;;;;;;4824767;29;20552;-90
2023/05/16 09:57:57;;;;;;;8.20;1.95;;;13.80;93.80;;;;;;4824901;29;20042;-88
2023/05/16 10:00:32;;;;;;;9.07;1.50;;;13.80;94.50;;;;;;4823314;29;20065;-89
2023/05/16 10:03:02;;;;;;;6.57;1.27;;;13.80;95.20;;;;;;4823103;29;20046;-88
2023/05/16 10:05:28;;;;;;;7.97;1.45;;;13.90;95.00;;;;;;4819268;29;20055;-86
2023/05/16 10:07:57;;;;;;;8.95;1.60;;;14.00;94.90;;;;;;4807383;29;20054;-87
2023/05/16 10:10:43;;;;;;;9.15;1.70;;;14.00;94.30;;;;;;4834079;29;20054;-88
2023/05/16 10:13:30;;;;;;;8.73;1.48;;;14.10;94.60;;;;;;4834556;29;20469;-88
2023/05/16 10:15:58;;;;;;;12.63;1.90;;;14.20;94.60;;;;;;4824023;29;20134;-85
2023/05/16 10:18:29;;;;;;;13.75;1.90;;;14.30;93.90;;;;;;4822280;29;20119;-89
2023/05/16 10:20:56;;;;;;;9.30;1.60;;;14.30;93.50;;;;;;4822377;29;20121;-89
2023/05/16 10:23:25;;;;;;;12.38;2.00;;;14.40;93.90;;;;;;4822545;29;20102;-90
2023/05/16 10:25:52;;;;;;;10.20;1.38;;;14.50;91.90;;;;;;4812173;29;20050;-89
2023/05/16 10:28:18;;;;;;;7.10;1.50;;;14.50;91.70;;;;;;4791314;24;1126985;-89
2023/05/16 10:30:45;;;;;;;8.35;1.55;;;14.50;90.80;;;;;;4823669;29;20476;-86
2023/05/16 10:33:18;;;;;;;7.60;1.60;;;14.60;90.10;;;;;;4817620;29;20066;-86
2023/05/16 10:35:44;;;;;;;;;;;14.60;89.50;;;;;;4813784;29;20077;-88
2023/05/16 10:38:18;;;;;;;5.72;1.20;;;14.50;90.70;;;;;;4817746;29;19964;-87
2023/05/16 10:40:46;;;;;;;8.82;1.70;;;14.50;91.50;;;;;;4820652;29;20057;-86
2023/05/16 10:43:25;;;;;;;11.13;1.60;;;14.50;90.50;;;;;;4822662;29;20057;-86
2023/05/16 10:45:56;;;;;;;7.07;1.52;;;14.50;89.40;;;;;;4822085;29;20137;-88
2023/05/16 10:48:34;;;;;;;9.02;1.30;;;14.60;91.90;;;;;;4815722;29;20106;-87
2023/05/16 10:51:01;;;;;;;9.30;1.30;;;14.60;91.70;;;;;;4823888;29;20141;-86
2023/05/16 10:53:34;;;;;;;7.68;1.48;;;14.60;91.00;;;;;;4823637;29;20125;-86
2023/05/16 10:56:02;;;;;;;7.32;1.30;;;14.70;90.10;;;;;;4821925;29;20042;-88
2023/05/16 10:58:37;;;;;;;7.20;1.30;;;14.70;91.00;;;;;;4820666;29;20050;-87
2023/05/16 11:04:19;;;;;;;10.40;1.40;;;14.70;91.60;;;;;;4856183;24;20133;-89
2023/05/16 11:06:51;;;;;;;9.93;1.50;;;14.80;91.40;;;;;;4841880;29;20250;-89
2023/05/16 11:09:22;;;;;;;10.25;1.80;;;14.80;91.20;;;;;;4840921;29;20513;-88
2023/05/16 11:11:50;;;;;;;9.27;1.30;;;14.80;90.80;;;;;;4841579;29;20049;-86
2023/05/16 11:14:22;;;;;;;9.30;1.83;;;14.80;90.40;;;;;;4841533;29;20057;-89
2023/05/16 11:16:51;;;;;;;8.90;1.50;;;14.80;90.10;;;;;;4843461;29;20054;-87
2023/05/16 11:19:33;;;;;;;10.35;1.70;;;14.80;89.80;;;;;;4860180;29;20046;-90
2023/05/16 11:22:26;;;;;;;10.02;1.80;;;14.80;89.70;;;;;;4845106;29;20085;-89
2023/05/16 11:25:06;;;;;;;7.13;1.40;;;14.90;90.70;;;;;;4829412;29;20488;-88
2023/05/16 11:27:48;;;;;;;6.65;1.33;;;14.90;92.10;;;;;;4825742;29;20050;-89
2023/05/16 11:30:20;;;;;;;9.83;1.80;;;15.10;92.20;;;;;;4836246;29;20066;-88
2023/05/16 11:33:01;;;;;;;9.57;1.40;;;15.10;90.80;;;;;;4843595;24;20633;-88
2023/05/16 11:35:27;;;;;;;6.38;1.50;;;15.10;88.10;;;;;;4838711;24;20128;-88
2023/05/16 11:37:55;;;;;;;7.22;1.45;;;15.10;88.60;;;;;;4839610;29;20058;-90
2023/05/16 11:40:23;;;;;;;8.38;1.65;;;15.20;90.60;;;;;;4827053;29;20116;-90
2023/05/16 11:42:58;;;;;;;6.82;1.45;;;15.20;90.30;;;;;;4825733;29;20499;-91
2023/05/16 11:45:24;;;;;;;10.70;1.45;;;15.30;91.50;;;;;;4828258;29;20057;-89
2023/05/16 11:47:53;;;;;;;7.05;1.40;;;15.40;91.50;;;;;;4840909;29;20050;-89
2023/05/16 11:50:25;;;;;;;8.25;1.55;;;15.40;91.70;;;;;;4827309;29;20035;-90
2023/05/16 11:52:54;;;;;;;7.70;1.50;;;15.30;91.10;;;;;;4837591;29;20593;-90
2023/05/16 11:55:22;;;;;;;8.43;1.90;;;15.30;92.00;;;;;;4845344;29;20125;-89
2023/05/16 11:57:55;;;;;;;7.50;1.55;;;15.30;92.00;;;;;;4844987;29;20387;-89
2023/05/16 12:00:30;;;;;;;9.50;1.70;;;15.30;92.80;;;;;;4831043;29;20046;-88
2023/05/16 12:03:03;;;;;;;8.05;1.50;;;15.40;93.00;;;;;;4826496;29;20107;-88
2023/05/16 12:05:31;;;;;;;9.43;1.77;;;15.40;92.90;;;;;;4825712;29;20043;-88
2023/05/16 12:08:08;;;;;;;9.52;1.75;;;15.40;93.20;;;;;;4826011;29;20045;-88
2023/05/16 12:10:34;;;;;;;8.43;1.80;;;15.40;92.70;;;;;;4826518;29;20069;-89
2023/05/16 12:13:09;;;;;;;9.43;2.13;;;15.40;91.80;;;;;;4833733;29;20049;-93
2023/05/16 12:15:35;;;;;;;9.40;1.73;;;15.30;92.70;;;;;;4827537;29;20042;-93
2023/05/16 12:19:22;;;;;;;7.88;1.85;;;15.30;93.30;;;;;;4825854;29;20503;-94
2023/05/16 12:22:03;;;;;;;9.40;2.00;;;15.30;93.90;;;;;;4784583;29;20504;-92
2023/05/16 12:25:19;;;;;;;10.65;1.92;;;15.30;93.80;;;;;;4843132;24;20054;-90
2023/05/16 12:27:45;;;;;;;8.93;1.98;;;15.30;92.30;;;;;;5003527;24;20036;-94
2023/05/16 12:30:31;;;;;;;10.98;1.98;;;15.20;93.50;;;;;;4842937;29;20066;-91
2023/05/16 12:49:12;;;;;;;7.57;2.17;;;15.10;94.20;;;;;;4818040;29;20141;-89
2023/05/16 12:52:12;;;;;;;8.57;2.38;;;15.10;91.20;;;;;;4824794;29;20412;-93
2023/05/16 12:55:03;;;;;;;8.48;2.45;;;14.90;91.80;;;;;;4817526;29;20143;-92
2023/05/16 13:05:42;;;;;;;9.82;2.63;;;14.90;90.20;;;;;;4800277;29;21768;-93
2023/05/16 13:13:58;;;;;;;11.20;2.65;;;14.80;92.30;;;;;;4870733;24;20076;-92
2023/05/16 13:23:37;;;;;;;10.68;2.78;;;14.90;93.70;;;;;;5075223;24;20054;-91
2023/05/16 13:26:34;;;;;;;12.25;2.97;;;14.90;92.40;;;;;;4842738;29;20069;-91
2023/05/16 13:31:54;;;;;;;8.18;2.40;;;14.90;91.70;;;;;;4855615;24;21159;-89
2023/05/16 13:45:42;;;;;;;9.10;2.67;;;14.90;92.40;;;;;;1482703;24;20364;-89
2023/05/16 13:52:55;;;;;;;7.30;2.50;;;14.90;92.50;;;;;;4849006;24;20109;-93
2023/05/16 13:55:23;;;;;;;8.60;2.70;;;14.90;92.50;;;;;;4844163;29;20114;-91
2023/05/16 13:57:48;;;;;;;9.00;2.75;;;14.90;91.20;;;;;;4844258;29;20052;-89
2023/05/16 14:00:18;;;;;;;9.95;2.70;;;14.90;91.70;;;;;;4852999;29;20049;-86
2023/05/16 14:02:49;;;;;;;9.68;2.75;;;14.80;91.10;;;;;;4844104;29;20046;-91
2023/05/16 14:05:18;;;;;;;9.68;2.83;;;14.80;92.00;;;;;;4842946;29;20056;-89
2023/05/16 14:07:52;;;;;;;10.77;3.38;;;14.80;90.80;;;;;;4842671;29;20125;-90
2023/05/16 14:10:25;;;;;;;10.25;3.25;;;14.80;91.30;;;;;;4857992;29;20482;-89
2023/05/16 14:12:59;;;;;;;7.10;2.75;;;14.70;90.60;;;;;;4842742;29;20054;-91
2023/05/16 14:15:32;;;;;;;8.27;2.08;;;14.60;91.60;;;;;;4844896;29;20057;-92
2023/05/16 14:18:04;;;;;;;6.88;2.40;;;14.60;92.00;;;;;;4861359;29;20077;-91
2023/05/16 14:20:52;;;;;;;7.28;2.45;;;14.50;92.20;;;;;;4834723;29;20045;-93
2023/05/16 14:26:25;;;;;;;;;;;;;;;;;;;;;
2023/05/16 14:29:09;;;;;;;7.18;2.50;;;14.30;95.40;;;;;;4808376;24;20492;-87
2023/05/16 14:32:30;;;;;;;7.10;2.53;;;14.40;95.40;;;;;;4821754;29;20049;-90
2023/05/16 14:35:13;;;;;;;7.20;2.70;;;14.40;93.90;;;;;;4803551;29;20055;-88
2023/05/16 14:37:53;;;;;;;6.47;2.47;;;14.30;95.00;;;;;;4789857;29;20104;-92
2023/05/16 14:40:20;;;;;;;9.00;2.70;;;14.30;94.70;;;;;;4804878;29;20051;-93
2023/05/16 14:42:46;;;;;;;8.00;2.67;;;14.30;95.30;;;;;;4801142;29;20090;-89
2023/05/16 14:45:24;;;;;;;6.85;2.50;;;14.30;95.30;;;;;;4789363;29;20086;-90
2023/05/16 14:47:52;;;;;;;7.43;2.30;;;14.30;95.40;;;;;;4785446;29;20047;-91
2023/05/16 14:50:18;;;;;;;9.68;2.65;;;14.30;94.90;;;;;;4789428;29;21905;-93
2023/05/16 14:55:20;;;;;;;9.32;2.63;;;14.30;93.90;;;;;;4831289;24;20069;-86
2023/05/16 14:57:46;;;;;;;11.60;2.30;;;14.10;92.80;;;;;;4839891;29;20145;-87
2023/05/16 15:00:23;;;;;;;6.50;2.25;;;14.00;92.70;;;;;;4827973;29;20045;-89
2023/05/16 15:02:49;;;;;;;8.63;2.60;;;13.80;92.50;;;;;;4823720;29;20187;-91
2023/05/16 15:05:17;;;;;;;7.90;2.10;;;13.80;93.10;;;;;;4825379;29;20448;-86
2023/05/16 15:07:54;;;;;;;7.75;2.30;;;13.70;93.00;;;;;;4821690;29;20046;-88
2023/05/16 15:10:26;;;;;;;7.20;1.88;;;13.60;93.20;;;;;;4812739;29;20050;-88
2023/05/16 15:13:50;;;;;;;8.23;2.08;;;13.50;93.30;;;;;;4811555;29;20046;-92
2023/05/16 15:16:15;;;;;;;8.70;2.60;;;13.50;93.80;;;;;;4772926;29;20077;-88
2023/05/16 15:18:42;;;;;;;8.68;2.08;;;13.50;94.40;;;;;;4829500;29;20034;-89
2023/05/16 15:21:16;;;;;;;8.55;2.80;;;13.60;94.20;;;;;;4801569;29;20062;-91
2023/05/16 15:23:50;;;;;;;9.20;2.38;;;13.60;94.30;;;;;;4792139;29;20055;-91
2023/05/16 15:26:17;;;;;;;12.23;4.47;;;13.60;93.90;;;;;;4817438;29;20107;-88
2023/05/16 15:28:42;;;;;;;93.80;35.97;;;13.60;93.70;;;;;;4795513;29;20051;-87
2023/05/16 15:31:24;;;;;;;43.40;15.50;;;13.60;94.90;;;;;;4834379;29;20057;-88
2023/05/16 15:33:58;;;;;;;37.60;15.60;;;13.60;94.90;;;;;;4838826;29;20049;-89
2023/05/16 15:36:35;;;;;;;64.97;27.00;;;13.60;95.00;;;;;;4805133;29;20053;-90
2023/05/16 15:39:10;;;;;;;43.58;19.30;;;13.70;95.40;;;;;;4810798;29;20491;-89
2023/05/16 15:41:35;;;;;;;32.10;15.02;;;13.70;95.60;;;;;;4816855;29;20049;-89